sensor_id;sensor_type;location;lat;lon;timestamp;pressure;altitude;pressure_sealevel;temperature;humidity
78667;BME280;67983;59.830;30.198;2023-03-08T00:00:36;99567.25;;;-1.64;52.58
78667;BME280;67983;59.830;30.198;2023-03-08T00:03:03;99557.47;;;-1.58;52.31
78667;BME280;67983;59.830;30.198;2023-03-08T00:05:30;99557.41;;;-1.56;51.85
78667;BME280;67983;59.830;30.198;2023-03-08T00:07:57;99566.00;;;-1.54;52.37
78667;BME280;67983;59.830;30.198;2023-03-08T00:10:29;99552.00;;;-1.50;52.03
78667;BME280;67983;59.830;30.198;2023-03-08T00:12:56;99553.66;;;-1.47;51.78
78667;BME280;67983;59.830;30.198;2023-03-08T00:15:23;99543.91;;;-1.42;51.73
78667;BME280;67983;59.830;30.198;2023-03-08T00:18:15;99544.75;;;-1.42;51.58
78667;BME280;67983;59.830;30.198;2023-03-08T00:20:44;99537.81;;;-1.41;51.79
78667;BME280;67983;59.830;30.198;2023-03-08T00:23:10;99523.94;;;-1.42;51.64
78667;BME280;67983;59.830;30.198;2023-03-08T00:25:40;99518.75;;;-1.42;51.21
78667;BME280;67983;59.830;30.198;2023-03-08T00:28:07;99517.06;;;-1.43;51.59
78667;BME280;67983;59.830;30.198;2023-03-08T00:30:34;99517.16;;;-1.46;51.70
78667;BME280;67983;59.830;30.198;2023-03-08T00:33:03;99517.09;;;-1.44;51.67
78667;BME280;67983;59.830;30.198;2023-03-08T00:35:31;99505.75;;;-1.42;51.51
78667;BME280;67983;59.830;30.198;2023-03-08T00:37:58;99484.97;;;-1.43;51.21
78667;BME280;67983;59.830;30.198;2023-03-08T00:40:26;99486.84;;;-1.47;51.21
78667;BME280;67983;59.830;30.198;2023-03-08T00:42:55;99480.09;;;-1.51;51.13
78667;BME280;67983;59.830;30.198;2023-03-08T00:45:22;99475.78;;;-1.52;50.97
78667;BME280;67983;59.830;30.198;2023-03-08T00:47:49;99468.81;;;-1.52;51.47
78667;BME280;67983;59.830;30.198;2023-03-08T00:50:17;99463.50;;;-1.48;51.40
78667;BME280;67983;59.830;30.198;2023-03-08T00:52:44;99468.59;;;-1.45;51.25
78667;BME280;67983;59.830;30.198;2023-03-08T00:55:12;99456.38;;;-1.43;51.05
78667;BME280;67983;59.830;30.198;2023-03-08T00:57:39;99457.94;;;-1.39;51.00
78667;BME280;67983;59.830;30.198;2023-03-08T01:00:10;99452.75;;;-1.39;51.01
78667;BME280;67983;59.830;30.198;2023-03-08T01:02:38;99457.91;;;-1.38;51.09
78667;BME280;67983;59.830;30.198;2023-03-08T01:05:06;99445.00;;;-1.41;50.91
78667;BME280;67983;59.830;30.198;2023-03-08T01:07:34;99445.31;;;-1.48;50.85
78667;BME280;67983;59.830;30.198;2023-03-08T01:10:08;99442.00;;;-1.54;51.02
78667;BME280;67983;59.830;30.198;2023-03-08T01:12:37;99438.53;;;-1.53;50.80
78667;BME280;67983;59.830;30.198;2023-03-08T01:15:06;99430.03;;;-1.58;51.09
78667;BME280;67983;59.830;30.198;2023-03-08T01:17:34;99416.88;;;-1.53;50.90
78667;BME280;67983;59.830;30.198;2023-03-08T01:20:02;99407.31;;;-1.53;51.01
78667;BME280;67983;59.830;30.198;2023-03-08T01:22:33;99392.75;;;-1.58;50.73
78667;BME280;67983;59.830;30.198;2023-03-08T01:25:00;99385.34;;;-1.67;50.61
78667;BME280;67983;59.830;30.198;2023-03-08T01:27:27;99380.97;;;-1.67;50.54
78667;BME280;67983;59.830;30.198;2023-03-08T01:29:54;99384.63;;;-1.72;50.92
78667;BME280;67983;59.830;30.198;2023-03-08T01:32:26;99370.84;;;-1.74;50.77
78667;BME280;67983;59.830;30.198;2023-03-08T01:34:57;99366.69;;;-1.78;50.75
78667;BME280;67983;59.830;30.198;2023-03-08T01:37:29;99365.84;;;-1.79;51.34
78667;BME280;67983;59.830;30.198;2023-03-08T01:39:57;99359.91;;;-1.83;51.11
78667;BME280;67983;59.830;30.198;2023-03-08T01:42:24;99355.69;;;-1.87;51.03
78667;BME280;67983;59.830;30.198;2023-03-08T01:44:53;99327.59;;;-1.99;51.40
78667;BME280;67983;59.830;30.198;2023-03-08T01:47:27;99349.78;;;-1.90;51.21
78667;BME280;67983;59.830;30.198;2023-03-08T01:50:19;99331.03;;;-1.98;51.45
78667;BME280;67983;59.830;30.198;2023-03-08T01:52:50;99329.28;;;-1.98;51.88
78667;BME280;67983;59.830;30.198;2023-03-08T01:55:22;99325.03;;;-2.00;51.53
78667;BME280;67983;59.830;30.198;2023-03-08T01:57:51;99313.78;;;-2.01;51.79
78667;BME280;67983;59.830;30.198;2023-03-08T02:00:24;99317.34;;;-2.03;51.37
78667;BME280;67983;59.830;30.198;2023-03-08T02:02:58;99316.56;;;-2.05;51.53
78667;BME280;67983;59.830;30.198;2023-03-08T02:05:30;99304.47;;;-2.06;51.24
78667;BME280;67983;59.830;30.198;2023-03-08T02:08:11;99295.84;;;-2.07;51.62
78667;BME280;67983;59.830;30.198;2023-03-08T02:10:38;99287.97;;;-2.05;51.62
78667;BME280;67983;59.830;30.198;2023-03-08T02:13:07;99281.94;;;-2.06;51.84
78667;BME280;67983;59.830;30.198;2023-03-08T02:15:39;99280.25;;;-2.07;51.57
78667;BME280;67983;59.830;30.198;2023-03-08T02:18:06;99277.69;;;-2.08;51.59
78667;BME280;67983;59.830;30.198;2023-03-08T02:20:37;99269.13;;;-2.11;51.59
78667;BME280;67983;59.830;30.198;2023-03-08T02:23:09;99253.59;;;-2.12;51.63
78667;BME280;67983;59.830;30.198;2023-03-08T02:25:49;99244.13;;;-2.15;51.93
78667;BME280;67983;59.830;30.198;2023-03-08T02:28:18;99242.56;;;-2.19;51.67
78667;BME280;67983;59.830;30.198;2023-03-08T02:30:46;99211.91;;;-2.32;51.74
78667;BME280;67983;59.830;30.198;2023-03-08T02:33:16;99231.28;;;-2.18;51.99
78667;BME280;67983;59.830;30.198;2023-03-08T02:35:45;99232.91;;;-2.15;52.10
78667;BME280;67983;59.830;30.198;2023-03-08T02:38:16;99231.91;;;-2.11;51.88
78667;BME280;67983;59.830;30.198;2023-03-08T02:40:46;99210.25;;;-2.12;52.08
78667;BME280;67983;59.830;30.198;2023-03-08T02:43:16;99219.56;;;-2.06;52.00
78667;BME280;67983;59.830;30.198;2023-03-08T02:45:43;99201.13;;;-2.00;51.79
78667;BME280;67983;59.830;30.198;2023-03-08T02:48:10;99200.06;;;-1.94;51.69
78667;BME280;67983;59.830;30.198;2023-03-08T02:50:38;99199.78;;;-1.88;51.46
78667;BME280;67983;59.830;30.198;2023-03-08T02:53:08;99190.88;;;-1.81;51.76
78667;BME280;67983;59.830;30.198;2023-03-08T02:55:39;99193.28;;;-1.76;51.36
78667;BME280;67983;59.830;30.198;2023-03-08T02:58:09;99178.59;;;-1.77;51.33
78667;BME280;67983;59.830;30.198;2023-03-08T03:00:36;99175.34;;;-1.83;51.37
78667;BME280;67983;59.830;30.198;2023-03-08T03:03:03;99167.53;;;-1.83;51.17
78667;BME280;67983;59.830;30.198;2023-03-08T03:05:31;99178.44;;;-1.74;51.53
78667;BME280;67983;59.830;30.198;2023-03-08T03:08:02;99168.84;;;-1.72;50.99
78667;BME280;67983;59.830;30.198;2023-03-08T03:10:29;99154.28;;;-1.76;50.71
78667;BME280;67983;59.830;30.198;2023-03-08T03:12:58;99149.97;;;-1.77;50.72
78667;BME280;67983;59.830;30.198;2023-03-08T03:15:28;99138.81;;;-1.79;50.88
78667;BME280;67983;59.830;30.198;2023-03-08T03:17:58;99130.69;;;-1.72;50.58
78667;BME280;67983;59.830;30.198;2023-03-08T03:20:25;99124.47;;;-1.68;50.56
78667;BME280;67983;59.830;30.198;2023-03-08T03:22:52;99113.00;;;-1.64;50.83
78667;BME280;67983;59.830;30.198;2023-03-08T03:25:24;99107.69;;;-1.61;50.71
78667;BME280;67983;59.830;30.198;2023-03-08T03:27:53;99092.00;;;-1.59;50.63
78667;BME280;67983;59.830;30.198;2023-03-08T03:30:24;99085.03;;;-1.59;50.48
78667;BME280;67983;59.830;30.198;2023-03-08T03:32:53;99079.72;;;-1.56;50.49
78667;BME280;67983;59.830;30.198;2023-03-08T03:35:25;99069.44;;;-1.59;50.59
78667;BME280;67983;59.830;30.198;2023-03-08T03:37:52;99072.25;;;-1.63;50.84
78667;BME280;67983;59.830;30.198;2023-03-08T03:40:19;99052.53;;;-1.69;50.66
78667;BME280;67983;59.830;30.198;2023-03-08T03:42:52;99053.53;;;-1.71;50.80
78667;BME280;67983;59.830;30.198;2023-03-08T03:45:19;99039.81;;;-1.75;51.38
78667;BME280;67983;59.830;30.198;2023-03-08T03:47:52;99036.44;;;-1.77;52.04
78667;BME280;67983;59.830;30.198;2023-03-08T03:50:20;99025.19;;;-1.77;53.01
78667;BME280;67983;59.830;30.198;2023-03-08T03:52:53;99022.31;;;-1.71;52.65
78667;BME280;67983;59.830;30.198;2023-03-08T03:55:21;99006.63;;;-1.68;52.95
78667;BME280;67983;59.830;30.198;2023-03-08T03:57:49;98996.06;;;-1.65;52.50
78667;BME280;67983;59.830;30.198;2023-03-08T04:00:20;98991.50;;;-1.60;52.68
78667;BME280;67983;59.830;30.198;2023-03-08T04:03:24;98982.53;;;-1.53;52.34
78667;BME280;67983;59.830;30.198;2023-03-08T04:05:52;98960.75;;;-1.51;52.12
78667;BME280;67983;59.830;30.198;2023-03-08T04:08:20;98960.16;;;-1.38;51.95
78667;BME280;67983;59.830;30.198;2023-03-08T04:10:47;98950.47;;;-1.35;52.23
78667;BME280;67983;59.830;30.198;2023-03-08T04:13:15;98940.84;;;-1.33;51.39
78667;BME280;67983;59.830;30.198;2023-03-08T04:15:42;98939.78;;;-1.29;51.68
78667;BME280;67983;59.830;30.198;2023-03-08T04:18:29;98927.47;;;-1.25;51.10
78667;BME280;67983;59.830;30.198;2023-03-08T04:21:08;98922.25;;;-1.25;51.24
78667;BME280;67983;59.830;30.198;2023-03-08T04:23:37;98906.81;;;-1.28;50.84
78667;BME280;67983;59.830;30.198;2023-03-08T04:26:09;98912.84;;;-1.28;50.38
78667;BME280;67983;59.830;30.198;2023-03-08T04:28:39;98906.81;;;-1.28;50.43
78667;BME280;67983;59.830;30.198;2023-03-08T04:31:13;98906.81;;;-1.28;50.52
78667;BME280;67983;59.830;30.198;2023-03-08T04:33:43;98895.69;;;-1.32;50.49
78667;BME280;67983;59.830;30.198;2023-03-08T04:36:13;98891.50;;;-1.34;50.29
78667;BME280;67983;59.830;30.198;2023-03-08T04:38:43;98879.19;;;-1.31;50.29
78667;BME280;67983;59.830;30.198;2023-03-08T04:41:20;98876.41;;;-1.28;50.27
78667;BME280;67983;59.830;30.198;2023-03-08T04:44:19;98872.97;;;-1.28;50.09
78667;BME280;67983;59.830;30.198;2023-03-08T04:46:51;98866.94;;;-1.29;49.82
78667;BME280;67983;59.830;30.198;2023-03-08T04:49:33;98868.84;;;-1.32;50.14
78667;BME280;67983;59.830;30.198;2023-03-08T04:52:03;98847.19;;;-1.33;49.94
78667;BME280;67983;59.830;30.198;2023-03-08T04:54:38;98850.63;;;-1.32;49.80
78667;BME280;67983;59.830;30.198;2023-03-08T04:57:35;98859.06;;;-1.27;50.00
78667;BME280;67983;59.830;30.198;2023-03-08T05:00:11;98845.13;;;-1.26;50.12
78667;BME280;67983;59.830;30.198;2023-03-08T05:02:47;98846.72;;;-1.24;50.16
78667;BME280;67983;59.830;30.198;2023-03-08T05:05:18;98844.13;;;-1.24;50.27
78667;BME280;67983;59.830;30.198;2023-03-08T05:07:46;98843.38;;;-1.26;50.19
78667;BME280;67983;59.830;30.198;2023-03-08T05:10:20;98826.91;;;-1.26;50.87
78667;BME280;67983;59.830;30.198;2023-03-08T05:12:47;98813.13;;;-1.28;51.69
78667;BME280;67983;59.830;30.198;2023-03-08T05:15:16;98802.50;;;-1.24;53.42
78667;BME280;67983;59.830;30.198;2023-03-08T05:17:45;98774.44;;;-1.17;53.79
78667;BME280;67983;59.830;30.198;2023-03-08T05:20:16;98770.91;;;-1.16;56.17
78667;BME280;67983;59.830;30.198;2023-03-08T05:22:44;98755.53;;;-1.21;56.40
78667;BME280;67983;59.830;30.198;2023-03-08T05:25:11;98744.41;;;-1.24;57.89
78667;BME280;67983;59.830;30.198;2023-03-08T05:27:40;98722.00;;;-1.27;58.29
78667;BME280;67983;59.830;30.198;2023-03-08T05:30:10;98702.34;;;-1.32;59.33
78667;BME280;67983;59.830;30.198;2023-03-08T05:32:39;98688.59;;;-1.34;59.50
78667;BME280;67983;59.830;30.198;2023-03-08T05:35:08;98677.88;;;-1.45;60.12
78667;BME280;67983;59.830;30.198;2023-03-08T05:37:37;98689.28;;;-1.48;60.86
78667;BME280;67983;59.830;30.198;2023-03-08T05:40:07;98676.44;;;-1.51;61.31
78667;BME280;67983;59.830;30.198;2023-03-08T05:42:40;98688.50;;;-1.50;61.66
78667;BME280;67983;59.830;30.198;2023-03-08T05:45:10;98683.22;;;-1.48;62.67
78667;BME280;67983;59.830;30.198;2023-03-08T05:47:40;98671.31;;;-1.53;62.51
78667;BME280;67983;59.830;30.198;2023-03-08T05:50:09;98663.63;;;-1.56;62.85
78667;BME280;67983;59.830;30.198;2023-03-08T05:52:38;98655.06;;;-1.58;63.47
78667;BME280;67983;59.830;30.198;2023-03-08T05:55:11;98658.59;;;-1.59;63.52
78667;BME280;67983;59.830;30.198;2023-03-08T05:57:39;98670.66;;;-1.58;63.90
78667;BME280;67983;59.830;30.198;2023-03-08T06:00:09;98667.38;;;-1.61;64.30
78667;BME280;67983;59.830;30.198;2023-03-08T06:02:47;98665.72;;;-1.62;63.54
78667;BME280;67983;59.830;30.198;2023-03-08T06:05:15;98651.78;;;-1.61;63.63
78667;BME280;67983;59.830;30.198;2023-03-08T06:07:43;98638.47;;;-1.55;63.96
78667;BME280;67983;59.830;30.198;2023-03-08T06:10:14;98625.25;;;-1.51;64.04
78667;BME280;67983;59.830;30.198;2023-03-08T06:12:42;98616.13;;;-1.42;64.37
78667;BME280;67983;59.830;30.198;2023-03-08T06:15:13;98621.97;;;-1.37;65.20
78667;BME280;67983;59.830;30.198;2023-03-08T06:17:41;98625.16;;;-1.32;64.66
78667;BME280;67983;59.830;30.198;2023-03-08T06:22:46;98613.53;;;-1.42;64.59
78667;BME280;67983;59.830;30.198;2023-03-08T06:25:15;98613.66;;;-1.28;64.68
78667;BME280;67983;59.830;30.198;2023-03-08T06:27:44;98594.66;;;-1.12;64.49
78667;BME280;67983;59.830;30.198;2023-03-08T06:30:20;98590.75;;;-1.04;64.36
78667;BME280;67983;59.830;30.198;2023-03-08T06:32:51;98604.69;;;-0.89;64.77
78667;BME280;67983;59.830;30.198;2023-03-08T06:35:19;98579.34;;;-0.85;64.39
78667;BME280;67983;59.830;30.198;2023-03-08T06:37:54;98571.44;;;-0.84;64.01
78667;BME280;67983;59.830;30.198;2023-03-08T06:40:23;98566.16;;;-0.82;63.81
78667;BME280;67983;59.830;30.198;2023-03-08T06:42:50;98564.13;;;-0.77;64.46
78667;BME280;67983;59.830;30.198;2023-03-08T06:45:18;98561.38;;;-0.74;63.60
78667;BME280;67983;59.830;30.198;2023-03-08T06:47:47;98556.66;;;-0.68;63.71
78667;BME280;67983;59.830;30.198;2023-03-08T06:50:15;98550.69;;;-0.70;63.86
78667;BME280;67983;59.830;30.198;2023-03-08T06:52:45;98535.75;;;-0.66;63.62
78667;BME280;67983;59.830;30.198;2023-03-08T06:55:17;98538.25;;;-0.65;63.76
78667;BME280;67983;59.830;30.198;2023-03-08T06:57:50;98522.31;;;-0.58;63.82
78667;BME280;67983;59.830;30.198;2023-03-08T07:00:21;98520.00;;;-0.49;63.49
78667;BME280;67983;59.830;30.198;2023-03-08T07:02:51;98508.16;;;-0.39;63.77
78667;BME280;67983;59.830;30.198;2023-03-08T07:05:20;98500.28;;;-0.23;63.70
78667;BME280;67983;59.830;30.198;2023-03-08T07:07:50;98499.50;;;-0.09;63.62
78667;BME280;67983;59.830;30.198;2023-03-08T07:10:19;98501.81;;;-0.05;63.46
78667;BME280;67983;59.830;30.198;2023-03-08T07:12:48;98492.91;;;-0.01;63.38
78667;BME280;67983;59.830;30.198;2023-03-08T07:15:44;98493.38;;;0.06;63.05
78667;BME280;67983;59.830;30.198;2023-03-08T07:18:11;98492.28;;;0.10;63.02
78667;BME280;67983;59.830;30.198;2023-03-08T07:20:39;98483.53;;;0.11;63.03
78667;BME280;67983;59.830;30.198;2023-03-08T07:23:09;98482.69;;;0.11;63.47
78667;BME280;67983;59.830;30.198;2023-03-08T07:25:40;98474.75;;;0.12;63.71
78667;BME280;67983;59.830;30.198;2023-03-08T07:28:08;98458.69;;;0.20;63.48
78667;BME280;67983;59.830;30.198;2023-03-08T07:31:00;98464.34;;;0.26;63.49
78667;BME280;67983;59.830;30.198;2023-03-08T07:33:31;98469.00;;;0.21;63.03
78667;BME280;67983;59.830;30.198;2023-03-08T07:35:59;98451.50;;;0.09;63.15
78667;BME280;67983;59.830;30.198;2023-03-08T07:38:30;98448.22;;;0.06;63.24
78667;BME280;67983;59.830;30.198;2023-03-08T07:40:59;98452.69;;;0.04;63.31
78667;BME280;67983;59.830;30.198;2023-03-08T07:48:43;98424.38;;;-0.61;64.17
78667;BME280;67983;59.830;30.198;2023-03-08T07:51:16;98432.31;;;-0.34;64.51
78667;BME280;67983;59.830;30.198;2023-03-08T07:53:45;98426.53;;;-0.09;64.46
78667;BME280;67983;59.830;30.198;2023-03-08T07:56:13;98414.69;;;0.14;64.39
78667;BME280;67983;59.830;30.198;2023-03-08T08:02:35;98403.59;;;0.53;63.61
78667;BME280;67983;59.830;30.198;2023-03-08T08:05:17;98399.75;;;0.73;63.15
78667;BME280;67983;59.830;30.198;2023-03-08T08:07:47;98401.38;;;0.88;62.95
78667;BME280;67983;59.830;30.198;2023-03-08T08:14:32;98393.50;;;1.02;62.89
78667;BME280;67983;59.830;30.198;2023-03-08T08:25:27;98382.91;;;0.64;61.80
78667;BME280;67983;59.830;30.198;2023-03-08T08:28:21;98380.56;;;0.59;61.93
78667;BME280;67983;59.830;30.198;2023-03-08T08:30:58;98374.41;;;0.60;61.84
78667;BME280;67983;59.830;30.198;2023-03-08T08:33:27;98366.88;;;0.56;61.47
78667;BME280;67983;59.830;30.198;2023-03-08T08:35:56;98372.56;;;0.63;62.16
78667;BME280;67983;59.830;30.198;2023-03-08T08:38:24;98372.16;;;0.69;61.62
78667;BME280;67983;59.830;30.198;2023-03-08T08:40:53;98372.44;;;0.78;61.66
78667;BME280;67983;59.830;30.198;2023-03-08T08:43:25;98368.59;;;0.84;61.56
78667;BME280;67983;59.830;30.198;2023-03-08T08:46:02;98359.50;;;0.89;61.54
78667;BME280;67983;59.830;30.198;2023-03-08T08:48:37;98366.44;;;1.03;61.48
78667;BME280;67983;59.830;30.198;2023-03-08T08:51:08;98362.94;;;1.17;61.18
78667;BME280;67983;59.830;30.198;2023-03-08T08:53:40;98356.09;;;1.29;60.76
78667;BME280;67983;59.830;30.198;2023-03-08T08:56:11;98353.25;;;1.32;60.51
78667;BME280;67983;59.830;30.198;2023-03-08T08:58:40;98338.88;;;1.39;60.49
78667;BME280;67983;59.830;30.198;2023-03-08T09:01:14;98345.25;;;1.47;60.33
78667;BME280;67983;59.830;30.198;2023-03-08T09:03:43;98340.75;;;1.62;60.57
78667;BME280;67983;59.830;30.198;2023-03-08T09:06:21;98337.44;;;1.73;60.37
78667;BME280;67983;59.830;30.198;2023-03-08T09:08:49;98326.13;;;1.72;60.37
78667;BME280;67983;59.830;30.198;2023-03-08T09:11:25;98328.84;;;1.84;60.43
78667;BME280;67983;59.830;30.198;2023-03-08T09:13:55;98326.53;;;1.92;60.46
78667;BME280;67983;59.830;30.198;2023-03-08T09:16:24;98327.38;;;1.92;60.24
78667;BME280;67983;59.830;30.198;2023-03-08T09:18:58;98323.59;;;1.96;60.64
78667;BME280;67983;59.830;30.198;2023-03-08T09:21:27;98317.41;;;2.10;61.11
78667;BME280;67983;59.830;30.198;2023-03-08T09:24:28;98323.78;;;2.31;60.63
78667;BME280;67983;59.830;30.198;2023-03-08T09:26:58;98314.28;;;2.54;60.68
78667;BME280;67983;59.830;30.198;2023-03-08T09:29:27;98305.72;;;2.76;61.08
78667;BME280;67983;59.830;30.198;2023-03-08T09:32:02;98311.22;;;3.19;60.75
78667;BME280;67983;59.830;30.198;2023-03-08T09:35:01;98312.38;;;3.50;60.64
78667;BME280;67983;59.830;30.198;2023-03-08T09:37:35;98312.78;;;3.79;61.00
78667;BME280;67983;59.830;30.198;2023-03-08T09:40:07;98302.19;;;4.03;60.82
78667;BME280;67983;59.830;30.198;2023-03-08T09:42:42;98309.47;;;4.22;60.17
78667;BME280;67983;59.830;30.198;2023-03-08T09:45:20;98310.53;;;4.31;59.74
78667;BME280;67983;59.830;30.198;2023-03-08T09:47:59;98312.19;;;4.43;60.63
78667;BME280;67983;59.830;30.198;2023-03-08T09:50:34;98308.25;;;4.48;59.81
78667;BME280;67983;59.830;30.198;2023-03-08T09:53:15;98314.06;;;4.63;59.68
78667;BME280;67983;59.830;30.198;2023-03-08T09:55:48;98305.56;;;4.71;59.62
78667;BME280;67983;59.830;30.198;2023-03-08T09:58:24;98314.97;;;4.73;59.17
78667;BME280;67983;59.830;30.198;2023-03-08T10:01:00;98306.88;;;4.76;59.71
78667;BME280;67983;59.830;30.198;2023-03-08T10:04:06;98313.19;;;4.74;59.42
78667;BME280;67983;59.830;30.198;2023-03-08T10:06:44;98314.66;;;4.56;58.34
78667;BME280;67983;59.830;30.198;2023-03-08T10:09:23;98304.91;;;4.35;58.90
78667;BME280;67983;59.830;30.198;2023-03-08T10:12:27;98302.06;;;4.27;58.96
78667;BME280;67983;59.830;30.198;2023-03-08T10:15:03;98301.59;;;4.22;58.92
78667;BME280;67983;59.830;30.198;2023-03-08T10:17:42;98309.25;;;4.14;59.39
78667;BME280;67983;59.830;30.198;2023-03-08T10:20:19;98300.50;;;4.13;59.23
78667;BME280;67983;59.830;30.198;2023-03-08T10:22:54;98298.84;;;4.12;58.40
78667;BME280;67983;59.830;30.198;2023-03-08T10:25:31;98291.72;;;4.03;58.84
78667;BME280;67983;59.830;30.198;2023-03-08T10:28:10;98288.00;;;3.95;59.25
78667;BME280;67983;59.830;30.198;2023-03-08T10:30:44;98296.81;;;3.82;59.47
78667;BME280;67983;59.830;30.198;2023-03-08T10:33:17;98285.28;;;3.85;59.60
78667;BME280;67983;59.830;30.198;2023-03-08T10:35:56;98289.78;;;3.94;59.80
78667;BME280;67983;59.830;30.198;2023-03-08T10:38:31;98283.97;;;4.02;59.46
78667;BME280;67983;59.830;30.198;2023-03-08T10:41:01;98283.34;;;4.20;59.74
78667;BME280;67983;59.830;30.198;2023-03-08T10:43:30;98271.84;;;4.44;58.93
78667;BME280;67983;59.830;30.198;2023-03-08T10:46:03;98273.22;;;4.59;59.08
78667;BME280;67983;59.830;30.198;2023-03-08T10:48:32;98267.81;;;4.72;58.97
78667;BME280;67983;59.830;30.198;2023-03-08T10:51:02;98276.72;;;4.92;58.47
78667;BME280;67983;59.830;30.198;2023-03-08T10:53:34;98268.34;;;4.98;57.63
78667;BME280;67983;59.830;30.198;2023-03-08T10:56:21;98270.41;;;5.15;57.29
78667;BME280;67983;59.830;30.198;2023-03-08T10:58:53;98269.63;;;5.45;56.93
78667;BME280;67983;59.830;30.198;2023-03-08T11:01:23;98269.94;;;5.73;56.70
78667;BME280;67983;59.830;30.198;2023-03-08T11:04:04;98271.41;;;5.65;56.28
78667;BME280;67983;59.830;30.198;2023-03-08T11:06:34;98265.06;;;5.47;56.70
78667;BME280;67983;59.830;30.198;2023-03-08T11:09:04;98268.72;;;5.35;56.94
78667;BME280;67983;59.830;30.198;2023-03-08T11:11:46;98266.50;;;5.30;57.34
78667;BME280;67983;59.830;30.198;2023-03-08T11:14:15;98273.53;;;5.30;57.63
78667;BME280;67983;59.830;30.198;2023-03-08T11:16:49;98262.72;;;5.23;57.21
78667;BME280;67983;59.830;30.198;2023-03-08T11:19:31;98264.38;;;5.24;57.45
78667;BME280;67983;59.830;30.198;2023-03-08T11:22:08;98269.56;;;5.35;57.83
78667;BME280;67983;59.830;30.198;2023-03-08T11:25:10;98260.72;;;5.36;57.41
78667;BME280;67983;59.830;30.198;2023-03-08T11:27:55;98252.84;;;5.36;57.48
78667;BME280;67983;59.830;30.198;2023-03-08T11:30:41;98254.59;;;5.36;57.28
78667;BME280;67983;59.830;30.198;2023-03-08T11:33:29;98258.59;;;5.30;57.87
78667;BME280;67983;59.830;30.198;2023-03-08T11:36:10;98269.63;;;5.24;57.88
78667;BME280;67983;59.830;30.198;2023-03-08T11:38:39;98250.78;;;5.19;57.98
78667;BME280;67983;59.830;30.198;2023-03-08T11:41:17;98250.84;;;5.08;58.68
78667;BME280;67983;59.830;30.198;2023-03-08T11:44:07;98260.88;;;5.03;58.86
78667;BME280;67983;59.830;30.198;2023-03-08T11:46:56;98253.25;;;5.00;59.46
78667;BME280;67983;59.830;30.198;2023-03-08T11:49:52;98250.91;;;4.97;59.63
78667;BME280;67983;59.830;30.198;2023-03-08T11:52:42;98253.78;;;4.94;59.71
78667;BME280;67983;59.830;30.198;2023-03-08T11:55:31;98246.22;;;5.00;60.29
78667;BME280;67983;59.830;30.198;2023-03-08T11:58:10;98244.41;;;5.01;59.82
78667;BME280;67983;59.830;30.198;2023-03-08T12:00:42;98246.47;;;4.97;59.63
78667;BME280;67983;59.830;30.198;2023-03-08T12:03:14;98243.72;;;4.99;60.09
78667;BME280;67983;59.830;30.198;2023-03-08T12:05:46;98236.88;;;5.07;59.60
78667;BME280;67983;59.830;30.198;2023-03-08T12:08:20;98231.16;;;5.02;59.49
78667;BME280;67983;59.830;30.198;2023-03-08T12:10:54;98233.72;;;4.93;59.40
78667;BME280;67983;59.830;30.198;2023-03-08T12:13:29;98233.94;;;4.90;60.09
78667;BME280;67983;59.830;30.198;2023-03-08T12:16:03;98229.91;;;4.86;59.68
78667;BME280;67983;59.830;30.198;2023-03-08T12:18:39;98230.06;;;4.84;59.46
78667;BME280;67983;59.830;30.198;2023-03-08T12:21:18;98234.81;;;4.90;59.75
78667;BME280;67983;59.830;30.198;2023-03-08T12:23:59;98241.22;;;4.97;59.32
78667;BME280;67983;59.830;30.198;2023-03-08T12:26:34;98224.09;;;5.03;59.46
78667;BME280;67983;59.830;30.198;2023-03-08T12:29:12;98226.09;;;5.10;59.21
78667;BME280;67983;59.830;30.198;2023-03-08T12:31:48;98224.47;;;5.19;59.31
78667;BME280;67983;59.830;30.198;2023-03-08T12:34:25;98218.19;;;5.31;58.51
78667;BME280;67983;59.830;30.198;2023-03-08T12:36:57;98220.81;;;5.31;58.54
78667;BME280;67983;59.830;30.198;2023-03-08T12:39:30;98216.28;;;5.33;58.38
78667;BME280;67983;59.830;30.198;2023-03-08T12:42:00;98222.97;;;5.37;57.56
78667;BME280;67983;59.830;30.198;2023-03-08T12:44:29;98227.00;;;5.42;58.23
78667;BME280;67983;59.830;30.198;2023-03-08T12:47:00;98223.13;;;5.46;57.84
78667;BME280;67983;59.830;30.198;2023-03-08T12:49:33;98227.81;;;5.42;57.45
78667;BME280;67983;59.830;30.198;2023-03-08T12:52:23;98226.09;;;5.31;57.05
78667;BME280;67983;59.830;30.198;2023-03-08T12:54:58;98231.66;;;5.17;57.05
78667;BME280;67983;59.830;30.198;2023-03-08T12:57:31;98227.00;;;5.00;57.22
78667;BME280;67983;59.830;30.198;2023-03-08T13:00:19;98223.34;;;4.91;57.24
78667;BME280;67983;59.830;30.198;2023-03-08T13:02:58;98229.78;;;4.87;57.17
78667;BME280;67983;59.830;30.198;2023-03-08T13:05:32;98219.66;;;4.83;56.94
78667;BME280;67983;59.830;30.198;2023-03-08T13:08:19;98217.03;;;4.83;57.22
78667;BME280;67983;59.830;30.198;2023-03-08T13:10:58;98220.38;;;4.85;56.59
78667;BME280;67983;59.830;30.198;2023-03-08T13:13:38;98207.66;;;4.69;57.05
78667;BME280;67983;59.830;30.198;2023-03-08T13:16:31;98227.81;;;4.79;56.85
78667;BME280;67983;59.830;30.198;2023-03-08T13:19:16;98222.50;;;4.91;56.90
78667;BME280;67983;59.830;30.198;2023-03-08T13:21:52;98221.16;;;4.96;55.31
78667;BME280;67983;59.830;30.198;2023-03-08T13:24:33;98216.16;;;4.93;55.89
78667;BME280;67983;59.830;30.198;2023-03-08T13:27:20;98215.63;;;4.99;54.93
78667;BME280;67983;59.830;30.198;2023-03-08T13:30:14;98217.34;;;4.89;53.65
78667;BME280;67983;59.830;30.198;2023-03-08T13:32:54;98206.78;;;4.79;54.04
78667;BME280;67983;59.830;30.198;2023-03-08T13:35:25;98221.75;;;4.68;53.63
78667;BME280;67983;59.830;30.198;2023-03-08T13:37:54;98224.19;;;4.60;53.50
78667;BME280;67983;59.830;30.198;2023-03-08T13:40:26;98222.19;;;4.52;53.76
78667;BME280;67983;59.830;30.198;2023-03-08T13:43:22;98226.91;;;4.58;53.64
78667;BME280;67983;59.830;30.198;2023-03-08T13:45:53;98228.97;;;4.55;53.24
78667;BME280;67983;59.830;30.198;2023-03-08T13:48:21;98224.81;;;4.52;53.36
78667;BME280;67983;59.830;30.198;2023-03-08T13:50:52;98227.88;;;4.57;53.31